sensor_id;sensor_type;location;lat;lon;timestamp;temperature;humidity
39503;DHT22;26970;49.900;10.774;2023-07-30T00:00:49;17.60;99.90
39503;DHT22;26970;49.900;10.774;2023-07-30T00:03:16;17.70;99.90
39503;DHT22;26970;49.900;10.774;2023-07-30T00:05:41;17.60;99.90
39503;DHT22;26970;49.900;10.774;2023-07-30T00:08:07;17.60;99.90
39503;DHT22;26970;49.900;10.774;2023-07-30T00:10:32;17.60;99.90
39503;DHT22;26970;49.900;10.774;2023-07-30T00:13:00;17.60;99.90
39503;DHT22;26970;49.900;10.774;2023-07-30T00:15:25;17.60;99.90
39503;DHT22;26970;49.900;10.774;2023-07-30T00:17:51;17.70;99.90
39503;DHT22;26970;49.900;10.774;2023-07-30T00:20:16;17.70;99.90
39503;DHT22;26970;49.900;10.774;2023-07-30T00:22:42;17.70;99.90
39503;DHT22;26970;49.900;10.774;2023-07-30T00:25:08;17.70;99.90
39503;DHT22;26970;49.900;10.774;2023-07-30T00:27:33;17.80;99.90
39503;DHT22;26970;49.900;10.774;2023-07-30T00:29:59;17.80;99.90
39503;DHT22;26970;49.900;10.774;2023-07-30T00:32:24;17.90;99.90
39503;DHT22;26970;49.900;10.774;2023-07-30T00:34:50;17.90;99.90
39503;DHT22;26970;49.900;10.774;2023-07-30T00:37:15;17.90;99.90
39503;DHT22;26970;49.900;10.774;2023-07-30T00:39:41;17.90;99.90
39503;DHT22;26970;49.900;10.774;2023-07-30T00:42:06;17.90;99.90
39503;DHT22;26970;49.900;10.774;2023-07-30T00:44:32;17.90;99.90
39503;DHT22;26970;49.900;10.774;2023-07-30T00:46:58;18.00;99.90
39503;DHT22;26970;49.900;10.774;2023-07-30T00:49:23;17.90;99.90
39503;DHT22;26970;49.900;10.774;2023-07-30T00:51:49;17.90;99.90
39503;DHT22;26970;49.900;10.774;2023-07-30T00:54:15;18.00;99.90
39503;DHT22;26970;49.900;10.774;2023-07-30T00:56:47;18.00;99.90
39503;DHT22;26970;49.900;10.774;2023-07-30T00:59:14;18.00;99.90
39503;DHT22;26970;49.900;10.774;2023-07-30T01:01:41;18.00;99.90
39503;DHT22;26970;49.900;10.774;2023-07-30T01:04:08;18.00;99.90
39503;DHT22;26970;49.900;10.774;2023-07-30T01:06:34;18.00;99.90
39503;DHT22;26970;49.900;10.774;2023-07-30T01:08:59;18.10;99.90
39503;DHT22;26970;49.900;10.774;2023-07-30T01:11:26;18.00;99.90
39503;DHT22;26970;49.900;10.774;2023-07-30T01:13:52;18.00;99.90
39503;DHT22;26970;49.900;10.774;2023-07-30T01:16:18;18.00;99.90
39503;DHT22;26970;49.900;10.774;2023-07-30T01:18:44;18.00;99.90
39503;DHT22;26970;49.900;10.774;2023-07-30T01:21:09;17.90;99.90
39503;DHT22;26970;49.900;10.774;2023-07-30T01:23:35;18.00;99.90
39503;DHT22;26970;49.900;10.774;2023-07-30T01:26:19;17.90;99.90
39503;DHT22;26970;49.900;10.774;2023-07-30T01:28:49;17.80;99.90
39503;DHT22;26970;49.900;10.774;2023-07-30T01:31:18;17.90;99.90
39503;DHT22;26970;49.900;10.774;2023-07-30T01:33:47;17.80;99.90
39503;DHT22;26970;49.900;10.774;2023-07-30T01:36:16;17.80;99.90
39503;DHT22;26970;49.900;10.774;2023-07-30T01:38:43;17.90;99.90
39503;DHT22;26970;49.900;10.774;2023-07-30T01:41:09;17.90;99.90
39503;DHT22;26970;49.900;10.774;2023-07-30T01:43:35;17.90;99.90
39503;DHT22;26970;49.900;10.774;2023-07-30T01:46:01;17.90;99.90
39503;DHT22;26970;49.900;10.774;2023-07-30T01:48:26;17.90;99.90
39503;DHT22;26970;49.900;10.774;2023-07-30T01:50:52;17.80;99.90
39503;DHT22;26970;49.900;10.774;2023-07-30T01:53:17;17.80;99.90
39503;DHT22;26970;49.900;10.774;2023-07-30T01:55:43;17.70;99.90
39503;DHT22;26970;49.900;10.774;2023-07-30T01:58:11;17.80;99.90
39503;DHT22;26970;49.900;10.774;2023-07-30T02:00:37;17.60;99.90
39503;DHT22;26970;49.900;10.774;2023-07-30T02:03:02;17.70;99.90
39503;DHT22;26970;49.900;10.774;2023-07-30T02:05:28;17.70;99.90
39503;DHT22;26970;49.900;10.774;2023-07-30T02:07:54;17.70;99.90
39503;DHT22;26970;49.900;10.774;2023-07-30T02:10:19;17.70;99.90
39503;DHT22;26970;49.900;10.774;2023-07-30T02:12:45;17.80;99.90
39503;DHT22;26970;49.900;10.774;2023-07-30T02:15:10;17.60;99.90
39503;DHT22;26970;49.900;10.774;2023-07-30T02:17:36;17.60;99.90
39503;DHT22;26970;49.900;10.774;2023-07-30T02:20:01;17.70;99.90
39503;DHT22;26970;49.900;10.774;2023-07-30T02:22:28;17.60;99.90
39503;DHT22;26970;49.900;10.774;2023-07-30T02:24:53;17.60;99.90
39503;DHT22;26970;49.900;10.774;2023-07-30T02:27:19;17.60;99.90
39503;DHT22;26970;49.900;10.774;2023-07-30T02:29:44;17.60;99.90
39503;DHT22;26970;49.900;10.774;2023-07-30T02:32:10;17.60;99.90
39503;DHT22;26970;49.900;10.774;2023-07-30T02:34:35;17.60;99.90
39503;DHT22;26970;49.900;10.774;2023-07-30T02:37:01;17.50;99.90
39503;DHT22;26970;49.900;10.774;2023-07-30T02:39:26;17.60;99.90
39503;DHT22;26970;49.900;10.774;2023-07-30T02:41:52;17.50;99.90
39503;DHT22;26970;49.900;10.774;2023-07-30T02:44:17;17.50;99.90
39503;DHT22;26970;49.900;10.774;2023-07-30T02:46:43;17.40;99.90
39503;DHT22;26970;49.900;10.774;2023-07-30T02:49:09;17.40;99.90
39503;DHT22;26970;49.900;10.774;2023-07-30T02:51:34;17.50;99.90
39503;DHT22;26970;49.900;10.774;2023-07-30T02:54:04;17.50;99.90
39503;DHT22;26970;49.900;10.774;2023-07-30T02:56:30;17.50;99.90
39503;DHT22;26970;49.900;10.774;2023-07-30T02:58:56;17.40;99.90
39503;DHT22;26970;49.900;10.774;2023-07-30T03:01:22;17.40;99.90
39503;DHT22;26970;49.900;10.774;2023-07-30T03:03:47;17.40;99.90
39503;DHT22;26970;49.900;10.774;2023-07-30T03:06:13;17.40;99.90
39503;DHT22;26970;49.900;10.774;2023-07-30T03:08:39;17.30;99.90
39503;DHT22;26970;49.900;10.774;2023-07-30T03:11:05;17.30;99.90
39503;DHT22;26970;49.900;10.774;2023-07-30T03:13:30;17.30;99.90
39503;DHT22;26970;49.900;10.774;2023-07-30T03:15:56;17.30;99.90
39503;DHT22;26970;49.900;10.774;2023-07-30T03:18:22;17.30;99.90
39503;DHT22;26970;49.900;10.774;2023-07-30T03:20:47;17.30;99.90
39503;DHT22;26970;49.900;10.774;2023-07-30T03:23:13;17.20;99.90
39503;DHT22;26970;49.900;10.774;2023-07-30T03:25:38;17.30;99.90
39503;DHT22;26970;49.900;10.774;2023-07-30T03:28:04;17.30;99.90
39503;DHT22;26970;49.900;10.774;2023-07-30T03:30:30;17.20;99.90
39503;DHT22;26970;49.900;10.774;2023-07-30T03:32:56;17.20;99.90
39503;DHT22;26970;49.900;10.774;2023-07-30T03:35:21;17.20;99.90
39503;DHT22;26970;49.900;10.774;2023-07-30T03:37:47;17.20;99.90
39503;DHT22;26970;49.900;10.774;2023-07-30T03:40:12;17.20;99.90
39503;DHT22;26970;49.900;10.774;2023-07-30T03:42:38;17.20;99.90
39503;DHT22;26970;49.900;10.774;2023-07-30T03:45:04;17.20;99.90
39503;DHT22;26970;49.900;10.774;2023-07-30T03:47:30;17.20;99.90
39503;DHT22;26970;49.900;10.774;2023-07-30T03:49:55;17.20;99.90
39503;DHT22;26970;49.900;10.774;2023-07-30T03:52:21;17.20;99.90
39503;DHT22;26970;49.900;10.774;2023-07-30T03:54:46;17.20;99.90
39503;DHT22;26970;49.900;10.774;2023-07-30T03:57:12;17.30;99.90
39503;DHT22;26970;49.900;10.774;2023-07-30T03:59:37;17.30;99.90
39503;DHT22;26970;49.900;10.774;2023-07-30T04:02:03;17.30;99.90
39503;DHT22;26970;49.900;10.774;2023-07-30T04:04:29;17.30;99.90
39503;DHT22;26970;49.900;10.774;2023-07-30T04:06:55;17.30;99.90
39503;DHT22;26970;49.900;10.774;2023-07-30T04:09:20;17.30;99.90
39503;DHT22;26970;49.900;10.774;2023-07-30T04:11:46;17.30;99.90
39503;DHT22;26970;49.900;10.774;2023-07-30T04:14:11;17.40;99.90
39503;DHT22;26970;49.900;10.774;2023-07-30T04:16:37;17.40;99.90
39503;DHT22;26970;49.900;10.774;2023-07-30T04:19:03;17.40;99.90
39503;DHT22;26970;49.900;10.774;2023-07-30T04:21:28;17.40;99.90
39503;DHT22;26970;49.900;10.774;2023-07-30T04:23:54;17.40;99.90
39503;DHT22;26970;49.900;10.774;2023-07-30T04:26:19;17.50;99.90
39503;DHT22;26970;49.900;10.774;2023-07-30T04:28:45;17.50;99.90
39503;DHT22;26970;49.900;10.774;2023-07-30T04:31:10;17.40;99.90
39503;DHT22;26970;49.900;10.774;2023-07-30T04:33:36;17.50;99.90
39503;DHT22;26970;49.900;10.774;2023-07-30T04:36:01;17.50;99.90
39503;DHT22;26970;49.900;10.774;2023-07-30T04:38:27;17.60;99.90
39503;DHT22;26970;49.900;10.774;2023-07-30T04:40:54;17.60;99.90
39503;DHT22;26970;49.900;10.774;2023-07-30T04:43:22;17.60;99.90
39503;DHT22;26970;49.900;10.774;2023-07-30T04:45:48;17.60;99.90
39503;DHT22;26970;49.900;10.774;2023-07-30T04:48:13;17.70;99.90
39503;DHT22;26970;49.900;10.774;2023-07-30T04:50:39;17.70;99.90
39503;DHT22;26970;49.900;10.774;2023-07-30T04:53:07;17.70;99.90
39503;DHT22;26970;49.900;10.774;2023-07-30T04:55:33;17.70;99.90
39503;DHT22;26970;49.900;10.774;2023-07-30T04:57:58;17.80;99.90
39503;DHT22;26970;49.900;10.774;2023-07-30T05:00:24;17.80;99.90
39503;DHT22;26970;49.900;10.774;2023-07-30T05:02:49;17.80;99.90
39503;DHT22;26970;49.900;10.774;2023-07-30T05:05:15;17.80;99.90
39503;DHT22;26970;49.900;10.774;2023-07-30T05:07:40;17.80;99.90
39503;DHT22;26970;49.900;10.774;2023-07-30T05:10:06;17.80;99.90
39503;DHT22;26970;49.900;10.774;2023-07-30T05:12:35;17.80;99.90
39503;DHT22;26970;49.900;10.774;2023-07-30T05:15:00;17.90;99.90
39503;DHT22;26970;49.900;10.774;2023-07-30T05:17:26;17.90;99.90
39503;DHT22;26970;49.900;10.774;2023-07-30T05:19:52;17.80;99.90
39503;DHT22;26970;49.900;10.774;2023-07-30T05:22:17;17.80;99.90
39503;DHT22;26970;49.900;10.774;2023-07-30T05:24:43;17.90;99.90
39503;DHT22;26970;49.900;10.774;2023-07-30T05:27:08;17.90;99.90
39503;DHT22;26970;49.900;10.774;2023-07-30T05:29:34;17.80;99.90
39503;DHT22;26970;49.900;10.774;2023-07-30T05:31:59;17.90;99.90
39503;DHT22;26970;49.900;10.774;2023-07-30T05:34:25;17.90;99.90
39503;DHT22;26970;49.900;10.774;2023-07-30T05:36:50;18.00;99.90
39503;DHT22;26970;49.900;10.774;2023-07-30T05:39:16;18.00;99.90
39503;DHT22;26970;49.900;10.774;2023-07-30T05:41:42;18.00;99.90
39503;DHT22;26970;49.900;10.774;2023-07-30T05:44:07;18.00;99.90
39503;DHT22;26970;49.900;10.774;2023-07-30T05:46:33;18.00;99.90
39503;DHT22;26970;49.900;10.774;2023-07-30T05:48:59;18.00;99.90
39503;DHT22;26970;49.900;10.774;2023-07-30T05:51:25;18.00;99.90
39503;DHT22;26970;49.900;10.774;2023-07-30T05:53:51;18.00;99.90
39503;DHT22;26970;49.900;10.774;2023-07-30T05:56:16;18.10;99.90
39503;DHT22;26970;49.900;10.774;2023-07-30T05:58:44;18.10;99.90
39503;DHT22;26970;49.900;10.774;2023-07-30T06:01:09;18.10;99.90
39503;DHT22;26970;49.900;10.774;2023-07-30T06:03:37;18.40;99.90
39503;DHT22;26970;49.900;10.774;2023-07-30T06:06:02;18.20;99.90
39503;DHT22;26970;49.900;10.774;2023-07-30T06:08:28;18.10;99.90
39503;DHT22;26970;49.900;10.774;2023-07-30T06:10:55;18.10;99.90
39503;DHT22;26970;49.900;10.774;2023-07-30T06:13:20;18.10;99.90
39503;DHT22;26970;49.900;10.774;2023-07-30T06:15:46;18.30;99.90
39503;DHT22;26970;49.900;10.774;2023-07-30T06:18:12;18.50;99.90
39503;DHT22;26970;49.900;10.774;2023-07-30T06:20:37;18.70;99.90
39503;DHT22;26970;49.900;10.774;2023-07-30T06:23:03;18.70;99.90
39503;DHT22;26970;49.900;10.774;2023-07-30T06:25:29;18.80;99.90
39503;DHT22;26970;49.900;10.774;2023-07-30T06:27:55;18.80;99.90
39503;DHT22;26970;49.900;10.774;2023-07-30T06:30:24;18.90;99.90
39503;DHT22;26970;49.900;10.774;2023-07-30T06:32:49;18.90;99.90
39503;DHT22;26970;49.900;10.774;2023-07-30T06:35:15;19.00;99.90
39503;DHT22;26970;49.900;10.774;2023-07-30T06:37:41;18.80;99.90
39503;DHT22;26970;49.900;10.774;2023-07-30T06:40:07;18.90;99.90
39503;DHT22;26970;49.900;10.774;2023-07-30T06:42:33;18.90;99.90
39503;DHT22;26970;49.900;10.774;2023-07-30T06:44:59;19.20;99.90
39503;DHT22;26970;49.900;10.774;2023-07-30T06:47:24;19.10;99.90
39503;DHT22;26970;49.900;10.774;2023-07-30T06:49:50;19.20;99.90
39503;DHT22;26970;49.900;10.774;2023-07-30T06:52:15;19.20;99.90
39503;DHT22;26970;49.900;10.774;2023-07-30T06:54:41;19.30;99.90
39503;DHT22;26970;49.900;10.774;2023-07-30T06:57:06;19.50;99.90
39503;DHT22;26970;49.900;10.774;2023-07-30T06:59:33;19.60;99.90
39503;DHT22;26970;49.900;10.774;2023-07-30T07:01:59;19.70;99.90
39503;DHT22;26970;49.900;10.774;2023-07-30T07:04:25;19.80;99.90
39503;DHT22;26970;49.900;10.774;2023-07-30T07:06:51;19.90;99.90
39503;DHT22;26970;49.900;10.774;2023-07-30T07:09:16;19.80;99.90
39503;DHT22;26970;49.900;10.774;2023-07-30T07:11:43;19.80;99.90
39503;DHT22;26970;49.900;10.774;2023-07-30T07:14:09;20.20;99.90
39503;DHT22;26970;49.900;10.774;2023-07-30T07:16:34;20.70;99.90
39503;DHT22;26970;49.900;10.774;2023-07-30T07:19:00;21.10;99.90
39503;DHT22;26970;49.900;10.774;2023-07-30T07:21:25;21.30;99.90
39503;DHT22;26970;49.900;10.774;2023-07-30T07:23:51;21.10;99.90
39503;DHT22;26970;49.900;10.774;2023-07-30T07:26:17;21.00;99.90
39503;DHT22;26970;49.900;10.774;2023-07-30T07:28:43;20.80;99.90
39503;DHT22;26970;49.900;10.774;2023-07-30T07:31:08;20.80;99.90
39503;DHT22;26970;49.900;10.774;2023-07-30T07:33:34;20.80;99.90
39503;DHT22;26970;49.900;10.774;2023-07-30T07:36:06;20.80;99.90
39503;DHT22;26970;49.900;10.774;2023-07-30T07:38:32;20.80;99.90
39503;DHT22;26970;49.900;10.774;2023-07-30T07:40:59;20.80;99.90
39503;DHT22;26970;49.900;10.774;2023-07-30T07:43:25;20.90;99.90
39503;DHT22;26970;49.900;10.774;2023-07-30T07:45:51;21.00;99.90
39503;DHT22;26970;49.900;10.774;2023-07-30T07:48:17;21.10;99.90
39503;DHT22;26970;49.900;10.774;2023-07-30T07:50:42;21.40;99.90
39503;DHT22;26970;49.900;10.774;2023-07-30T07:53:08;21.50;99.90
39503;DHT22;26970;49.900;10.774;2023-07-30T07:55:34;21.70;99.90
39503;DHT22;26970;49.900;10.774;2023-07-30T07:58:00;21.70;99.90
39503;DHT22;26970;49.900;10.774;2023-07-30T08:00:25;21.90;99.90
39503;DHT22;26970;49.900;10.774;2023-07-30T08:02:51;22.00;99.90
39503;DHT22;26970;49.900;10.774;2023-07-30T08:05:16;21.90;99.90
39503;DHT22;26970;49.900;10.774;2023-07-30T08:07:45;22.00;99.90
39503;DHT22;26970;49.900;10.774;2023-07-30T08:10:11;21.90;99.90
39503;DHT22;26970;49.900;10.774;2023-07-30T08:12:36;21.90;99.90
39503;DHT22;26970;49.900;10.774;2023-07-30T08:15:02;21.90;99.90
39503;DHT22;26970;49.900;10.774;2023-07-30T08:17:28;21.90;99.90
39503;DHT22;26970;49.900;10.774;2023-07-30T08:19:54;21.80;99.90
39503;DHT22;26970;49.900;10.774;2023-07-30T08:22:20;21.70;99.90
39503;DHT22;26970;49.900;10.774;2023-07-30T08:24:45;21.70;99.90
39503;DHT22;26970;49.900;10.774;2023-07-30T08:27:11;21.70;99.90
39503;DHT22;26970;49.900;10.774;2023-07-30T08:29:36;21.70;99.90
39503;DHT22;26970;49.900;10.774;2023-07-30T08:32:02;21.60;99.90
39503;DHT22;26970;49.900;10.774;2023-07-30T08:34:27;21.80;99.90
39503;DHT22;26970;49.900;10.774;2023-07-30T08:36:53;22.20;99.90
39503;DHT22;26970;49.900;10.774;2023-07-30T08:39:19;22.20;99.90
39503;DHT22;26970;49.900;10.774;2023-07-30T08:41:45;22.20;99.90
39503;DHT22;26970;49.900;10.774;2023-07-30T08:44:11;22.10;99.90
39503;DHT22;26970;49.900;10.774;2023-07-30T08:46:37;21.90;99.90
39503;DHT22;26970;49.900;10.774;2023-07-30T08:49:03;22.20;99.90
39503;DHT22;26970;49.900;10.774;2023-07-30T08:51:29;22.40;99.90
39503;DHT22;26970;49.900;10.774;2023-07-30T08:53:57;22.40;99.90
39503;DHT22;26970;49.900;10.774;2023-07-30T08:56:23;22.40;99.90
39503;DHT22;26970;49.900;10.774;2023-07-30T08:58:50;22.50;99.90
39503;DHT22;26970;49.900;10.774;2023-07-30T09:01:18;22.60;99.90
39503;DHT22;26970;49.900;10.774;2023-07-30T09:03:44;22.30;99.90
39503;DHT22;26970;49.900;10.774;2023-07-30T09:06:09;22.20;99.90
39503;DHT22;26970;49.900;10.774;2023-07-30T09:08:35;22.40;99.90
39503;DHT22;26970;49.900;10.774;2023-07-30T09:11:10;22.70;99.90
39503;DHT22;26970;49.900;10.774;2023-07-30T09:13:40;22.90;99.90
39503;DHT22;26970;49.900;10.774;2023-07-30T09:16:13;23.00;99.90
39503;DHT22;26970;49.900;10.774;2023-07-30T09:18:45;22.90;99.90
39503;DHT22;26970;49.900;10.774;2023-07-30T09:21:11;23.00;99.90
39503;DHT22;26970;49.900;10.774;2023-07-30T09:23:47;23.10;99.90
39503;DHT22;26970;49.900;10.774;2023-07-30T09:26:13;22.70;99.90
39503;DHT22;26970;49.900;10.774;2023-07-30T09:28:42;23.10;99.90
39503;DHT22;26970;49.900;10.774;2023-07-30T09:31:08;23.20;99.90
39503;DHT22;26970;49.900;10.774;2023-07-30T09:33:35;23.00;99.90
39503;DHT22;26970;49.900;10.774;2023-07-30T09:36:07;22.70;99.90
39503;DHT22;26970;49.900;10.774;2023-07-30T09:38:41;22.70;99.90
39503;DHT22;26970;49.900;10.774;2023-07-30T09:41:07;22.90;99.90
39503;DHT22;26970;49.900;10.774;2023-07-30T09:43:33;23.10;99.90
39503;DHT22;26970;49.900;10.774;2023-07-30T09:46:03;23.10;99.90
39503;DHT22;26970;49.900;10.774;2023-07-30T09:48:30;23.00;99.90
39503;DHT22;26970;49.900;10.774;2023-07-30T09:51:00;22.70;99.90
39503;DHT22;26970;49.900;10.774;2023-07-30T09:53:30;22.60;99.90
39503;DHT22;26970;49.900;10.774;2023-07-30T09:55:56;22.50;99.90
39503;DHT22;26970;49.900;10.774;2023-07-30T09:58:21;22.50;99.90
39503;DHT22;26970;49.900;10.774;2023-07-30T10:00:48;22.40;99.90
39503;DHT22;26970;49.900;10.774;2023-07-30T10:03:15;22.40;99.90
39503;DHT22;26970;49.900;10.774;2023-07-30T10:05:44;22.40;99.90
39503;DHT22;26970;49.900;10.774;2023-07-30T10:08:16;22.40;99.90
39503;DHT22;26970;49.900;10.774;2023-07-30T10:10:44;22.50;99.90
39503;DHT22;26970;49.900;10.774;2023-07-30T10:13:12;22.60;99.90
39503;DHT22;26970;49.900;10.774;2023-07-30T10:15:38;22.60;99.90
39503;DHT22;26970;49.900;10.774;2023-07-30T10:18:04;22.40;99.90
39503;DHT22;26970;49.900;10.774;2023-07-30T10:20:31;22.30;99.90
39503;DHT22;26970;49.900;10.774;2023-07-30T10:23:00;22.10;99.90
39503;DHT22;26970;49.900;10.774;2023-07-30T10:25:42;22.00;99.90
39503;DHT22;26970;49.900;10.774;2023-07-30T10:30:59;21.50;99.90
39503;DHT22;26970;49.900;10.774;2023-07-30T10:33:44;21.40;99.90
39503;DHT22;26970;49.900;10.774;2023-07-30T10:36:10;21.40;99.90
39503;DHT22;26970;49.900;10.774;2023-07-30T10:38:36;21.40;99.90
39503;DHT22;26970;49.900;10.774;2023-07-30T10:41:15;21.50;99.90
39503;DHT22;26970;49.900;10.774;2023-07-30T10:43:47;21.60;99.90
39503;DHT22;26970;49.900;10.774;2023-07-30T10:46:14;21.60;99.90
39503;DHT22;26970;49.900;10.774;2023-07-30T10:48:42;21.50;99.90
39503;DHT22;26970;49.900;10.774;2023-07-30T10:51:09;21.40;99.90
39503;DHT22;26970;49.900;10.774;2023-07-30T10:53:36;21.40;99.90
39503;DHT22;26970;49.900;10.774;2023-07-30T10:56:10;20.80;99.90
39503;DHT22;26970;49.900;10.774;2023-07-30T10:58:37;20.10;99.90
39503;DHT22;26970;49.900;10.774;2023-07-30T11:01:07;19.70;99.90
39503;DHT22;26970;49.900;10.774;2023-07-30T11:03:33;19.50;99.90
39503;DHT22;26970;49.900;10.774;2023-07-30T11:06:00;19.30;99.90
39503;DHT22;26970;49.900;10.774;2023-07-30T11:08:37;19.20;99.90
39503;DHT22;26970;49.900;10.774;2023-07-30T11:11:04;19.40;99.90
39503;DHT22;26970;49.900;10.774;2023-07-30T11:13:38;19.40;99.90
39503;DHT22;26970;49.900;10.774;2023-07-30T11:16:05;19.50;99.90
39503;DHT22;26970;49.900;10.774;2023-07-30T11:18:32;19.60;99.90
39503;DHT22;26970;49.900;10.774;2023-07-30T11:21:08;19.90;99.90
39503;DHT22;26970;49.900;10.774;2023-07-30T11:23:35;20.10;99.90
39503;DHT22;26970;49.900;10.774;2023-07-30T11:26:02;20.30;99.90
39503;DHT22;26970;49.900;10.774;2023-07-30T11:30:59;20.40;99.90
39503;DHT22;26970;49.900;10.774;2023-07-30T11:33:27;20.50;99.90
39503;DHT22;26970;49.900;10.774;2023-07-30T11:35:54;20.50;99.90
39503;DHT22;26970;49.900;10.774;2023-07-30T11:38:21;20.60;99.90
39503;DHT22;26970;49.900;10.774;2023-07-30T11:40:47;20.80;99.90
39503;DHT22;26970;49.900;10.774;2023-07-30T11:43:14;20.60;99.90
39503;DHT22;26970;49.900;10.774;2023-07-30T11:45:39;20.60;99.90
39503;DHT22;26970;49.900;10.774;2023-07-30T11:48:11;20.70;99.90
39503;DHT22;26970;49.900;10.774;2023-07-30T11:50:51;21.20;99.90
39503;DHT22;26970;49.900;10.774;2023-07-30T11:53:18;21.60;99.90
39503;DHT22;26970;49.900;10.774;2023-07-30T11:55:44;22.00;99.90
39503;DHT22;26970;49.900;10.774;2023-07-30T11:58:11;22.20;99.90
39503;DHT22;26970;49.900;10.774;2023-07-30T12:00:37;22.10;99.90
39503;DHT22;26970;49.900;10.774;2023-07-30T12:03:04;22.10;99.90
39503;DHT22;26970;49.900;10.774;2023-07-30T12:05:37;22.10;99.90
39503;DHT22;26970;49.900;10.774;2023-07-30T12:08:05;22.10;99.90
39503;DHT22;26970;49.900;10.774;2023-07-30T12:10:46;21.90;99.90
39503;DHT22;26970;49.900;10.774;2023-07-30T12:13:17;21.80;99.90
39503;DHT22;26970;49.900;10.774;2023-07-30T12:15:55;22.00;99.90
39503;DHT22;26970;49.900;10.774;2023-07-30T12:18:22;22.50;99.90
39503;DHT22;26970;49.900;10.774;2023-07-30T12:20:49;22.70;99.90
39503;DHT22;26970;49.900;10.774;2023-07-30T12:23:19;22.90;99.90
39503;DHT22;26970;49.900;10.774;2023-07-30T12:25:46;22.90;99.90
39503;DHT22;26970;49.900;10.774;2023-07-30T12:28:12;22.90;99.90
39503;DHT22;26970;49.900;10.774;2023-07-30T12:30:37;22.70;99.90
39503;DHT22;26970;49.900;10.774;2023-07-30T12:33:06;22.50;99.90
39503;DHT22;26970;49.900;10.774;2023-07-30T12:35:32;22.20;99.90
39503;DHT22;26970;49.900;10.774;2023-07-30T12:37:59;22.00;99.90
39503;DHT22;26970;49.900;10.774;2023-07-30T12:40:24;21.60;99.90
39503;DHT22;26970;49.900;10.774;2023-07-30T12:42:50;21.10;99.90
39503;DHT22;26970;49.900;10.774;2023-07-30T12:45:16;20.40;99.90
39503;DHT22;26970;49.900;10.774;2023-07-30T12:47:41;19.90;99.90
39503;DHT22;26970;49.900;10.774;2023-07-30T12:50:07;19.60;99.90
39503;DHT22;26970;49.900;10.774;2023-07-30T12:52:34;19.50;99.90
39503;DHT22;26970;49.900;10.774;2023-07-30T12:55:00;19.60;99.90
39503;DHT22;26970;49.900;10.774;2023-07-30T12:57:26;19.80;99.90
39503;DHT22;26970;49.900;10.774;2023-07-30T12:59:51;19.80;99.90
39503;DHT22;26970;49.900;10.774;2023-07-30T13:02:17;20.20;99.90
39503;DHT22;26970;49.900;10.774;2023-07-30T13:04:43;20.60;99.90
39503;DHT22;26970;49.900;10.774;2023-07-30T13:07:09;20.80;99.90
39503;DHT22;26970;49.900;10.774;2023-07-30T13:09:34;20.90;99.90
39503;DHT22;26970;49.900;10.774;2023-07-30T13:12:00;20.90;99.90
39503;DHT22;26970;49.900;10.774;2023-07-30T13:14:25;20.70;99.90
39503;DHT22;26970;49.900;10.774;2023-07-30T13:16:51;20.60;99.90
39503;DHT22;26970;49.900;10.774;2023-07-30T13:19:17;20.50;99.90
39503;DHT22;26970;49.900;10.774;2023-07-30T13:21:42;20.50;99.90
39503;DHT22;26970;49.900;10.774;2023-07-30T13:24:08;20.30;99.90
39503;DHT22;26970;49.900;10.774;2023-07-30T13:26:35;20.20;99.90
39503;DHT22;26970;49.900;10.774;2023-07-30T13:29:01;20.40;99.90
39503;DHT22;26970;49.900;10.774;2023-07-30T13:31:28;20.60;99.90
39503;DHT22;26970;49.900;10.774;2023-07-30T13:33:54;20.90;99.90
39503;DHT22;26970;49.900;10.774;2023-07-30T13:36:19;20.80;99.90
39503;DHT22;26970;49.900;10.774;2023-07-30T13:38:46;21.00;99.90
39503;DHT22;26970;49.900;10.774;2023-07-30T13:41:12;21.20;99.90
39503;DHT22;26970;49.900;10.774;2023-07-30T13:43:38;20.90;99.90
39503;DHT22;26970;49.900;10.774;2023-07-30T13:46:04;20.40;99.90
39503;DHT22;26970;49.900;10.774;2023-07-30T13:48:30;20.50;99.90
39503;DHT22;26970;49.900;10.774;2023-07-30T13:50:56;20.60;99.90
39503;DHT22;26970;49.900;10.774;2023-07-30T13:53:23;20.40;99.90
39503;DHT22;26970;49.900;10.774;2023-07-30T13:55:49;20.20;99.90
39503;DHT22;26970;49.900;10.774;2023-07-30T13:58:14;20.10;99.90
39503;DHT22;26970;49.900;10.774;2023-07-30T14:00:40;20.00;99.90
39503;DHT22;26970;49.900;10.774;2023-07-30T14:03:07;20.10;99.90
39503;DHT22;26970;49.900;10.774;2023-07-30T14:05:33;20.10;99.90
39503;DHT22;26970;49.900;10.774;2023-07-30T14:07:58;20.10;99.90
39503;DHT22;26970;49.900;10.774;2023-07-30T14:10:24;20.00;99.90
39503;DHT22;26970;49.900;10.774;2023-07-30T14:12:50;20.20;99.90
39503;DHT22;26970;49.900;10.774;2023-07-30T14:15:16;20.40;99.90
39503;DHT22;26970;49.900;10.774;2023-07-30T14:17:42;20.60;99.90
39503;DHT22;26970;49.900;10.774;2023-07-30T14:20:08;21.00;99.90
39503;DHT22;26970;49.900;10.774;2023-07-30T14:22:35;21.30;99.90
39503;DHT22;26970;49.900;10.774;2023-07-30T14:25:01;21.10;99.90
39503;DHT22;26970;49.900;10.774;2023-07-30T14:27:27;20.90;99.90
39503;DHT22;26970;49.900;10.774;2023-07-30T14:29:53;20.50;99.90
39503;DHT22;26970;49.900;10.774;2023-07-30T14:32:22;20.30;99.90
39503;DHT22;26970;49.900;10.774;2023-07-30T14:34:49;20.20;99.90
39503;DHT22;26970;49.900;10.774;2023-07-30T14:37:15;20.30;99.90
39503;DHT22;26970;49.900;10.774;2023-07-30T14:39:41;20.20;99.90
39503;DHT22;26970;49.900;10.774;2023-07-30T14:42:07;20.30;99.90
39503;DHT22;26970;49.900;10.774;2023-07-30T14:44:34;20.50;99.90
39503;DHT22;26970;49.900;10.774;2023-07-30T14:47:00;20.80;99.90
39503;DHT22;26970;49.900;10.774;2023-07-30T14:49:26;21.00;99.90
39503;DHT22;26970;49.900;10.774;2023-07-30T14:51:52;21.00;99.90
39503;DHT22;26970;49.900;10.774;2023-07-30T14:54:18;20.60;99.90
39503;DHT22;26970;49.900;10.774;2023-07-30T14:56:45;20.50;99.90
39503;DHT22;26970;49.900;10.774;2023-07-30T14:59:11;19.90;99.90
39503;DHT22;26970;49.900;10.774;2023-07-30T15:01:37;20.40;99.90
39503;DHT22;26970;49.900;10.774;2023-07-30T15:04:02;20.30;99.90
39503;DHT22;26970;49.900;10.774;2023-07-30T15:06:31;20.30;99.90
39503;DHT22;26970;49.900;10.774;2023-07-30T15:08:57;20.30;99.90
39503;DHT22;26970;49.900;10.774;2023-07-30T15:11:22;20.60;99.90
39503;DHT22;26970;49.900;10.774;2023-07-30T15:13:49;20.60;99.90
39503;DHT22;26970;49.900;10.774;2023-07-30T15:16:14;20.70;99.90